Time;durP1;ratioP1;P1;durP2;ratioP2;P2;SDS_P1;SDS_P2;PMS_P1;PMS_P2;Temp;Humidity;BMP_temperature;BMP_pressure;BME280_temperature;BME280_humidity;BME280_pressure;Samples;Min_cycle;Max_cycle;Signal;HPM_P1;HPM_P2
2022/08/17 00:01:25;;;;;;;2.28;0.77;;;19.80;99.90;;;;;;10291914;28;20057;-65
2022/08/17 00:06:30;;;;;;;1.42;0.95;;;19.70;99.90;;;;;;10292760;28;20125;-66
2022/08/17 00:11:38;;;;;;;2.35;0.95;;;19.60;99.90;;;;;;10273799;28;20042;-64
2022/08/17 00:16:50;;;;;;;1.95;1.30;;;19.60;99.90;;;;;;10289419;28;20046;-67
2022/08/17 00:22:01;;;;;;;2.13;1.20;;;19.60;99.90;;;;;;10289988;28;20058;-67
2022/08/17 00:27:23;;;;;;;2.28;0.93;;;19.50;99.90;;;;;;10288512;28;20053;-67
2022/08/17 00:32:25;;;;;;;3.30;0.80;;;19.40;99.90;;;;;;10287046;28;20055;-67
2022/08/17 00:37:47;;;;;;;1.75;1.00;;;19.40;99.90;;;;;;10293954;28;20062;-64
2022/08/17 00:42:49;;;;;;;1.83;0.82;;;19.40;99.90;;;;;;10287965;28;20050;-65
2022/08/17 00:47:51;;;;;;;1.92;1.23;;;19.30;99.90;;;;;;10269775;28;20054;-65
2022/08/17 00:52:55;;;;;;;3.55;1.15;;;19.40;99.90;;;;;;10292943;28;20050;-64
2022/08/17 00:58:00;;;;;;;5.82;1.20;;;19.40;99.90;;;;;;10296412;28;20539;-65
2022/08/17 01:03:08;;;;;;;3.20;1.33;;;19.30;99.90;;;;;;10291647;28;20504;-65
2022/08/17 01:08:14;;;;;;;1.27;1.08;;;19.30;99.90;;;;;;10288883;28;20062;-64
2022/08/17 01:13:16;;;;;;;3.38;1.08;;;19.30;99.90;;;;;;10286393;28;20057;-64
2022/08/17 01:18:18;;;;;;;1.27;1.00;;;19.20;99.90;;;;;;10294175;28;20054;-64
2022/08/17 01:23:22;;;;;;;2.55;1.10;;;19.20;99.90;;;;;;10292936;28;20061;-67
2022/08/17 01:28:29;;;;;;;2.75;1.30;;;19.10;99.90;;;;;;10288717;28;20053;-67
2022/08/17 01:33:51;;;;;;;2.38;1.88;;;19.00;99.90;;;;;;10290444;28;20062;-67
2022/08/17 01:38:53;;;;;;;1.17;0.98;;;19.00;99.90;;;;;;10288820;28;20050;-67
2022/08/17 01:44:02;;;;;;;2.30;1.35;;;19.00;99.90;;;;;;10289006;28;20054;-67
2022/08/17 01:49:09;;;;;;;4.57;1.70;;;18.90;99.90;;;;;;10298942;28;20050;-65
2022/08/17 01:54:14;;;;;;;2.70;1.60;;;18.90;99.90;;;;;;10296537;28;20371;-64
2022/08/17 01:59:18;;;;;;;2.00;1.58;;;18.90;99.90;;;;;;10299948;28;20065;-64
2022/08/17 02:04:20;;;;;;;2.20;1.30;;;18.90;99.90;;;;;;10297509;28;20473;-65
2022/08/17 02:09:24;;;;;;;3.80;1.73;;;18.90;99.90;;;;;;10297871;28;20054;-64
2022/08/17 02:14:30;;;;;;;5.45;1.83;;;18.80;99.90;;;;;;10279419;28;20061;-65
2022/08/17 02:19:32;;;;;;;3.75;1.88;;;18.80;99.90;;;;;;10293574;28;20051;-66
2022/08/17 02:24:36;;;;;;;2.67;1.70;;;18.70;99.90;;;;;;10294876;28;20047;-67
2022/08/17 02:29:58;;;;;;;2.47;1.55;;;18.60;99.90;;;;;;10285144;28;20051;-66
2022/08/17 02:35:00;;;;;;;7.00;1.80;;;18.50;99.90;;;;;;10294295;28;20108;-66
2022/08/17 02:40:02;;;;;;;3.20;1.60;;;18.40;99.90;;;;;;10295463;28;20057;-66
2022/08/17 02:45:09;;;;;;;1.65;1.23;;;18.40;99.90;;;;;;10296942;28;20047;-67
2022/08/17 02:50:14;;;;;;;3.58;1.17;;;18.30;99.90;;;;;;10291227;28;20050;-67
2022/08/17 02:55:26;;;;;;;3.72;1.40;;;18.30;99.90;;;;;;10287623;28;20042;-67
2022/08/17 03:00:34;;;;;;;3.55;1.52;;;18.40;99.90;;;;;;10293809;28;20046;-67
2022/08/17 03:05:37;;;;;;;3.22;1.65;;;18.40;99.90;;;;;;10296751;28;20490;-67
2022/08/17 03:10:39;;;;;;;3.55;1.85;;;18.30;99.90;;;;;;10271433;28;20058;-67
2022/08/17 03:15:44;;;;;;;3.63;2.03;;;18.30;99.90;;;;;;10292892;28;20061;-67
2022/08/17 03:20:46;;;;;;;2.35;2.05;;;18.20;99.90;;;;;;10295426;28;20064;-67
2022/08/17 03:25:47;;;;;;;4.90;1.95;;;18.20;99.90;;;;;;10298015;28;20065;-67
2022/08/17 03:30:54;;;;;;;10.00;1.80;;;18.30;99.90;;;;;;10295481;28;20055;-67
2022/08/17 03:35:56;;;;;;;3.40;1.92;;;18.20;99.90;;;;;;10288292;28;20054;-67
2022/08/17 03:40:57;;;;;;;5.40;2.40;;;18.20;99.90;;;;;;10297094;28;20058;-67
2022/08/17 03:57:15;;;;;;;6.80;2.53;;;18.10;99.90;;;;;;10289082;28;20051;-67
2022/08/17 04:02:23;;;;;;;2.92;1.88;;;18.00;99.90;;;;;;10291483;28;20046;-67
2022/08/17 04:07:27;;;;;;;4.25;1.85;;;18.00;99.90;;;;;;10289113;28;20560;-67
2022/08/17 04:12:47;;;;;;;2.45;1.65;;;18.00;99.90;;;;;;10292987;28;20516;-67
2022/08/17 04:17:50;;;;;;;5.15;1.80;;;18.00;99.90;;;;;;10295446;28;20281;-65
2022/08/17 04:23:00;;;;;;;2.13;1.80;;;18.10;99.90;;;;;;10290800;28;20512;-66
2022/08/17 04:28:04;;;;;;;3.13;1.90;;;18.00;99.90;;;;;;10290635;28;20054;-66
2022/08/17 04:33:16;;;;;;;5.15;1.52;;;18.10;99.90;;;;;;10292177;28;20533;-66
2022/08/17 04:38:20;;;;;;;3.15;1.90;;;18.00;99.90;;;;;;10289131;28;20058;-65
2022/08/17 04:43:25;;;;;;;2.55;1.55;;;18.10;99.90;;;;;;10291513;28;20058;-67
2022/08/17 04:48:53;;;;;;;4.35;1.77;;;18.10;99.90;;;;;;10292736;28;20050;-67
2022/08/17 04:53:58;;;;;;;3.60;2.22;;;18.20;99.90;;;;;;10294499;28;20061;-64
2022/08/17 04:59:04;;;;;;;3.75;2.40;;;18.20;99.90;;;;;;10286512;28;20066;-64
2022/08/17 05:04:09;;;;;;;5.18;1.70;;;18.20;99.90;;;;;;10291433;28;20624;-64
2022/08/17 05:09:30;;;;;;;4.82;1.83;;;18.20;99.90;;;;;;10286946;28;20046;-64
2022/08/17 05:14:32;;;;;;;4.63;2.35;;;18.30;99.90;;;;;;10293369;28;20576;-64
2022/08/17 05:19:34;;;;;;;2.38;2.08;;;18.30;99.90;;;;;;10297297;28;20457;-63
2022/08/17 05:24:38;;;;;;;5.15;1.98;;;18.30;99.90;;;;;;10300921;28;20055;-63
2022/08/17 05:29:51;;;;;;;3.22;1.88;;;18.40;99.90;;;;;;10298662;28;20050;-64
2022/08/17 05:34:55;;;;;;;3.20;1.80;;;18.40;99.90;;;;;;10300296;28;20054;-65
2022/08/17 05:39:56;;;;;;;2.63;1.92;;;18.50;99.90;;;;;;10297476;28;20058;-65
2022/08/17 05:44:58;;;;;;;3.53;2.13;;;18.60;99.90;;;;;;10298734;28;20078;-65
2022/08/17 05:50:01;;;;;;;2.92;2.10;;;18.80;99.90;;;;;;10299017;28;20046;-65
2022/08/17 05:55:19;;;;;;;2.20;1.60;;;19.00;99.90;;;;;;10294474;28;20054;-65
2022/08/17 06:00:39;;;;;;;3.15;2.00;;;19.30;99.90;;;;;;10296075;28;20050;-64
2022/08/17 06:05:50;;;;;;;5.43;1.80;;;19.60;99.90;;;;;;10296169;28;20056;-65
2022/08/17 06:11:23;;;;;;;2.97;2.10;;;19.80;99.90;;;;;;10288437;28;20054;-64
2022/08/17 06:16:35;;;;;;;2.33;1.70;;;20.10;99.90;;;;;;10259641;28;20053;-65
2022/08/17 06:21:40;;;;;;;2.75;1.58;;;20.20;99.90;;;;;;10263084;28;20051;-64
2022/08/17 06:26:44;;;;;;;3.35;1.40;;;20.40;99.90;;;;;;10258378;28;20051;-64
2022/08/17 06:31:45;;;;;;;10.00;2.00;;;20.50;99.90;;;;;;10242004;28;20055;-66
2022/08/17 06:36:52;;;;;;;2.70;1.58;;;20.80;99.90;;;;;;10263652;28;20058;-66
2022/08/17 06:42:06;;;;;;;4.60;1.63;;;21.00;99.90;;;;;;10257496;28;20042;-65
2022/08/17 06:47:18;;;;;;;2.85;1.58;;;21.10;99.90;;;;;;10260913;28;20055;-65
2022/08/17 06:52:40;;;;;;;2.38;1.42;;;21.30;99.90;;;;;;10259456;28;20134;-65
2022/08/17 06:58:01;;;;;;;3.70;1.40;;;21.40;99.90;;;;;;10262375;28;20126;-64
2022/08/17 07:03:36;;;;;;;2.63;1.45;;;21.60;99.90;;;;;;10263027;28;20117;-64
2022/08/17 07:09:12;;;;;;;3.33;1.60;;;21.90;99.90;;;;;;10254812;28;20062;-64
2022/08/17 07:14:36;;;;;;;2.90;1.13;;;22.10;99.90;;;;;;10257750;28;20051;-64
2022/08/17 07:19:41;;;;;;;2.08;1.40;;;22.20;99.90;;;;;;10258524;28;20051;-64
2022/08/17 07:24:57;;;;;;;2.13;1.02;;;22.30;99.90;;;;;;10261269;28;20087;-64
2022/08/17 07:30:19;;;;;;;2.00;1.58;;;22.40;99.90;;;;;;10254391;28;20058;-64
2022/08/17 07:35:39;;;;;;;4.03;1.60;;;22.50;99.90;;;;;;10258654;28;20105;-64
2022/08/17 07:41:03;;;;;;;4.90;1.70;;;22.70;99.90;;;;;;10248544;28;20147;-65
2022/08/17 07:51:46;;;;;;;5.78;1.42;;;22.90;99.90;;;;;;10231613;28;20050;-65
2022/08/17 07:56:50;;;;;;;8.82;1.48;;;23.10;99.90;;;;;;10247627;28;20133;-63
2022/08/17 08:01:59;;;;;;;2.58;1.70;;;23.30;99.90;;;;;;10241081;28;20055;-64
2022/08/17 08:07:16;;;;;;;2.50;1.50;;;23.30;99.90;;;;;;10245618;28;20494;-64
2022/08/17 08:12:20;;;;;;;;;;;23.50;99.90;;;;;;10279726;28;20050;-64
2022/08/17 08:17:29;;;;;;;3.30;1.60;;;23.50;99.90;;;;;;10297127;28;19933;-64
2022/08/17 08:22:45;;;;;;;3.55;1.63;;;23.20;99.90;;;;;;10288035;28;20077;-64
2022/08/17 08:28:00;;;;;;;2.83;1.13;;;23.40;99.90;;;;;;10287767;28;20145;-64
2022/08/17 08:33:16;;;;;;;2.53;1.27;;;23.50;99.90;;;;;;10284446;28;20042;-64
2022/08/17 08:38:45;;;;;;;2.43;1.60;;;23.50;99.90;;;;;;10276277;28;20042;-63
2022/08/17 08:44:05;;;;;;;2.30;1.60;;;23.20;99.90;;;;;;10293688;28;20054;-64
2022/08/17 08:49:10;;;;;;;4.80;1.77;;;23.00;99.90;;;;;;10281811;28;20043;-63
2022/08/17 08:54:30;;;;;;;2.15;1.45;;;22.90;99.90;;;;;;10288446;28;22367;-64
2022/08/17 09:00:01;;;;;;;5.80;1.77;;;22.90;99.90;;;;;;10295163;28;20043;-64
2022/08/17 09:05:31;;;;;;;3.15;1.80;;;22.80;99.90;;;;;;10270551;28;20074;-64
2022/08/17 09:11:01;;;;;;;3.90;1.70;;;22.70;99.90;;;;;;10277941;28;20052;-64
2022/08/17 09:16:21;;;;;;;2.17;1.90;;;22.80;99.90;;;;;;10256287;28;20046;-64
2022/08/17 09:21:39;;;;;;;3.60;1.80;;;22.60;99.90;;;;;;10259252;28;20054;-64
2022/08/17 09:27:21;;;;;;;2.43;2.07;;;22.50;99.90;;;;;;10254750;28;20050;-64
2022/08/17 09:32:57;;;;;;;5.30;2.55;;;22.60;99.90;;;;;;10255930;28;20050;-64
2022/08/17 09:38:18;;;;;;;3.15;2.13;;;22.70;99.90;;;;;;10230983;28;20051;-63
2022/08/17 09:43:50;;;;;;;5.65;3.22;;;22.70;99.90;;;;;;10252561;28;20050;-63
2022/08/17 09:49:05;;;;;;;4.85;2.50;;;22.80;99.90;;;;;;10256652;28;20059;-62
2022/08/17 09:54:20;;;;;;;3.05;1.90;;;22.90;99.90;;;;;;10245829;28;20043;-62
2022/08/17 10:00:07;;;;;;;4.75;2.47;;;23.30;99.90;;;;;;10249191;28;20481;-63
2022/08/17 10:05:45;;;;;;;4.97;2.22;;;23.60;99.90;;;;;;10250334;28;20040;-62
2022/08/17 10:10:57;;;;;;;7.43;2.65;;;23.80;99.90;;;;;;10244279;28;20537;-63
2022/08/17 10:16:25;;;;;;;4.20;2.10;;;24.10;99.90;;;;;;10253671;28;20082;-63
2022/08/17 10:26:50;;;;;;;7.20;2.80;;;24.40;99.90;;;;;;10248913;28;19930;-63
2022/08/17 10:32:04;;;;;;;7.68;2.65;;;24.70;99.90;;;;;;10256337;28;20092;-63
2022/08/17 10:37:34;;;;;;;7.68;3.33;;;24.60;99.90;;;;;;10250836;28;20367;-63
2022/08/17 10:42:48;;;;;;;5.38;2.55;;;24.70;99.90;;;;;;10243049;28;20047;-63
2022/08/17 10:48:05;;;;;;;3.97;2.72;;;24.70;99.90;;;;;;10242350;28;20047;-63
2022/08/17 10:53:08;;;;;;;6.82;3.22;;;24.90;99.90;;;;;;10236386;28;20378;-63
2022/08/17 10:58:20;;;;;;;4.93;2.95;;;24.90;99.90;;;;;;10257783;28;20058;-62
2022/08/17 11:03:25;;;;;;;3.85;2.45;;;25.20;99.90;;;;;;10240358;28;20241;-63
2022/08/17 11:08:45;;;;;;;4.10;2.30;;;25.20;99.90;;;;;;10236007;28;20047;-63
2022/08/17 11:14:03;;;;;;;3.78;2.03;;;25.30;99.90;;;;;;10261052;28;20066;-63
2022/08/17 11:19:29;;;;;;;4.57;2.13;;;25.30;99.90;;;;;;10258619;28;20043;-63
2022/08/17 11:24:36;;;;;;;;;;;25.20;99.90;;;;;;10248910;28;20493;-63
2022/08/17 11:29:52;;;;;;;4.45;2.22;;;25.10;99.90;;;;;;10256040;28;19922;-63
2022/08/17 11:35:20;;;;;;;3.65;2.65;;;24.90;99.90;;;;;;10235453;28;20125;-64
2022/08/17 11:40:40;;;;;;;9.95;2.85;;;24.90;99.90;;;;;;10241367;28;20067;-64
2022/08/17 11:46:09;;;;;;;8.35;2.85;;;25.00;99.90;;;;;;10253083;28;20058;-64
2022/08/17 11:51:32;;;;;;;4.95;2.58;;;25.20;99.90;;;;;;10239960;28;20047;-64
2022/08/17 11:56:39;;;;;;;5.50;2.50;;;25.60;99.90;;;;;;10250121;28;20055;-64
2022/08/17 12:01:55;;;;;;;5.93;1.98;;;25.60;99.90;;;;;;10247223;28;20061;-64
2022/08/17 12:07:07;;;;;;;3.83;2.00;;;26.30;99.90;;;;;;10251832;28;20038;-64
2022/08/17 12:12:12;;;;;;;2.72;1.98;;;26.60;99.90;;;;;;10253478;28;20083;-64
2022/08/17 12:17:21;;;;;;;6.25;2.38;;;27.00;99.90;;;;;;10244826;28;20086;-64
2022/08/17 12:23:03;;;;;;;4.40;1.30;;;27.00;99.90;;;;;;10251799;28;20121;-64
2022/08/17 12:28:23;;;;;;;3.83;1.30;;;27.20;99.90;;;;;;10244966;28;20085;-64
2022/08/17 12:33:26;;;;;;;2.33;1.50;;;27.20;99.10;;;;;;10247747;28;20047;-64
2022/08/17 12:38:33;;;;;;;2.75;1.48;;;27.70;98.70;;;;;;10244265;28;20105;-62
2022/08/17 12:43:34;;;;;;;;;;;28.10;97.80;;;;;;10261575;28;20046;-64
2022/08/17 12:48:36;;;;;;;4.43;1.73;;;28.00;96.30;;;;;;10256762;28;19922;-63
2022/08/17 12:53:41;;;;;;;4.10;1.23;;;28.10;96.30;;;;;;10233229;28;20051;-64
2022/08/17 12:58:48;;;;;;;3.78;1.63;;;28.40;96.10;;;;;;10242026;28;20568;-64
2022/08/17 13:03:53;;;;;;;4.00;1.67;;;28.40;95.40;;;;;;10250999;28;20073;-66
2022/08/17 13:08:55;;;;;;;1.92;1.20;;;28.80;94.80;;;;;;10236728;28;20062;-65
2022/08/17 13:14:08;;;;;;;1.42;1.00;;;28.90;94.70;;;;;;10264955;28;20054;-67
2022/08/17 13:19:15;;;;;;;3.80;1.45;;;29.00;94.80;;;;;;10292098;28;20061;-66
2022/08/17 13:24:29;;;;;;;1.63;1.50;;;29.40;93.80;;;;;;10293392;28;20050;-67
2022/08/17 13:29:45;;;;;;;4.50;1.20;;;30.10;93.00;;;;;;10292820;28;20436;-67
2022/08/17 13:34:56;;;;;;;2.35;1.17;;;30.60;91.50;;;;;;10289250;28;20801;-67
2022/08/17 13:40:17;;;;;;;1.83;1.10;;;30.50;90.90;;;;;;10297002;28;20061;-67
2022/08/17 13:45:30;;;;;;;3.65;1.08;;;31.10;90.70;;;;;;10299661;28;20528;-66
2022/08/17 13:50:53;;;;;;;3.55;1.40;;;31.10;88.30;;;;;;10306828;28;20042;-66
2022/08/17 13:56:03;;;;;;;5.28;1.30;;;30.30;86.30;;;;;;10299680;28;20057;-66
2022/08/17 14:01:29;;;;;;;5.00;1.67;;;30.20;88.10;;;;;;10300833;28;20054;-67
2022/08/17 14:06:42;;;;;;;1.20;0.80;;;30.40;86.20;;;;;;10295327;28;20047;-67
2022/08/17 14:11:56;;;;;;;2.85;1.00;;;30.40;86.10;;;;;;10273518;28;20049;-66
2022/08/17 14:16:58;;;;;;;2.67;1.10;;;30.90;85.80;;;;;;10254657;28;20047;-67
2022/08/17 14:22:00;;;;;;;2.58;1.45;;;31.10;84.70;;;;;;10258984;28;20068;-67
2022/08/17 14:27:04;;;;;;;1.67;1.13;;;31.00;83.90;;;;;;10263879;28;20117;-66
2022/08/17 14:32:18;;;;;;;2.55;1.20;;;30.90;83.40;;;;;;10257070;28;20053;-66
2022/08/17 14:37:20;;;;;;;1.73;1.25;;;31.20;82.80;;;;;;10253395;28;20053;-67
2022/08/17 14:42:25;;;;;;;1.85;1.08;;;31.60;81.70;;;;;;10259820;28;20051;-66
2022/08/17 14:47:26;;;;;;;2.78;0.90;;;32.20;80.60;;;;;;10231715;28;20066;-67
2022/08/17 14:52:28;;;;;;;4.22;1.02;;;31.70;79.60;;;;;;10235277;28;20050;-67
2022/08/17 14:57:30;;;;;;;2.10;0.90;;;31.30;79.40;;;;;;10244857;28;20047;-67
2022/08/17 15:02:47;;;;;;;1.33;1.05;;;30.90;82.00;;;;;;10261331;28;20121;-67
2022/08/17 15:07:49;;;;;;;1.17;0.80;;;31.20;78.90;;;;;;10262365;28;20054;-67
2022/08/17 15:12:51;;;;;;;3.28;0.88;;;31.50;81.20;;;;;;10252283;28;20049;-67
2022/08/17 15:17:53;;;;;;;1.40;1.10;;;31.40;77.70;;;;;;10256471;28;20051;-67
2022/08/17 15:22:56;;;;;;;3.90;0.93;;;31.20;77.40;;;;;;10252662;28;20050;-67
2022/08/17 15:27:59;;;;;;;0.90;0.90;;;31.70;77.10;;;;;;10255993;28;20102;-68
2022/08/17 15:33:01;;;;;;;1.63;1.02;;;31.60;76.00;;;;;;10251462;28;20043;-68
2022/08/17 15:38:06;;;;;;;3.50;1.52;;;31.50;75.60;;;;;;10252194;28;20055;-67
2022/08/17 15:43:19;;;;;;;1.85;1.05;;;31.90;78.70;;;;;;10260945;28;20043;-67
2022/08/17 15:48:40;;;;;;;;;;;32.00;77.70;;;;;;10251784;28;20046;-68
2022/08/17 15:53:46;;;;;;;2.15;0.90;;;31.90;75.90;;;;;;10252569;28;20393;-69
2022/08/17 15:58:49;;;;;;;1.35;0.80;;;31.70;72.80;;;;;;10240338;28;20055;-68
2022/08/17 16:03:54;;;;;;;1.13;1.02;;;31.50;73.30;;;;;;10257414;28;20042;-68
2022/08/17 16:09:07;;;;;;;2.45;1.00;;;31.60;76.10;;;;;;10239964;28;20059;-67
2022/08/17 16:14:09;;;;;;;3.78;1.27;;;31.60;74.50;;;;;;10292736;28;20050;-67
2022/08/17 16:19:14;;;;;;;1.60;0.80;;;31.70;74.00;;;;;;10298955;28;20045;-67
2022/08/17 16:24:15;;;;;;;1.50;0.90;;;31.90;74.20;;;;;;10296171;28;20049;-67
2022/08/17 16:29:17;;;;;;;2.05;1.02;;;32.00;72.20;;;;;;10296647;28;20042;-67
2022/08/17 16:34:19;;;;;;;1.98;0.98;;;32.00;73.40;;;;;;10298281;28;20050;-66
2022/08/17 16:39:21;;;;;;;1.27;0.73;;;31.70;71.80;;;;;;10295572;28;20057;-66
2022/08/17 16:44:27;;;;;;;1.98;0.95;;;31.50;71.00;;;;;;10276514;28;20073;-66
2022/08/17 16:49:29;;;;;;;2.35;1.00;;;31.50;71.30;;;;;;10293265;28;20042;-67
2022/08/17 16:54:42;;;;;;;3.95;1.20;;;31.60;72.00;;;;;;10291035;28;20074;-69
2022/08/17 16:59:48;;;;;;;2.25;1.00;;;31.50;74.20;;;;;;10284273;28;20078;-67
2022/08/17 17:05:12;;;;;;;1.92;1.10;;;31.70;74.30;;;;;;10288833;28;20058;-65
2022/08/17 17:10:41;;;;;;;4.32;0.80;;;31.80;72.00;;;;;;10286570;28;20057;-65
2022/08/17 17:15:53;;;;;;;4.03;1.15;;;31.90;74.30;;;;;;10259039;28;20051;-64
2022/08/17 17:20:56;;;;;;;3.33;0.85;;;31.90;73.00;;;;;;10239101;28;20519;-65
2022/08/17 17:26:14;;;;;;;3.47;1.42;;;31.90;70.90;;;;;;10259149;28;20481;-65
2022/08/17 17:31:22;;;;;;;1.45;1.02;;;31.50;70.20;;;;;;10259304;28;20058;-64
2022/08/17 17:36:34;;;;;;;2.60;1.10;;;31.30;71.70;;;;;;10260637;28;20421;-63
2022/08/17 17:41:46;;;;;;;3.33;1.20;;;30.80;71.10;;;;;;10256731;28;20062;-63
2022/08/17 17:46:53;;;;;;;2.72;1.25;;;30.50;73.40;;;;;;10239876;28;20054;-63
2022/08/17 17:52:23;;;;;;;4.53;2.00;;;30.30;72.50;;;;;;10251775;28;20055;-63
2022/08/17 17:57:56;;;;;;;8.27;1.50;;;30.00;73.10;;;;;;10248588;28;20505;-63
2022/08/17 18:03:23;;;;;;;3.35;0.98;;;29.80;74.00;;;;;;10251644;28;20043;-63
2022/08/17 18:08:47;;;;;;;2.75;1.20;;;29.70;74.70;;;;;;10253920;28;20501;-63
2022/08/17 18:14:13;;;;;;;2.50;1.30;;;29.60;75.50;;;;;;10254558;28;20047;-63
2022/08/17 18:19:23;;;;;;;4.03;1.40;;;29.40;76.20;;;;;;10266473;28;20070;-63
2022/08/17 18:24:31;;;;;;;2.95;1.38;;;29.20;77.60;;;;;;10256168;28;20062;-63
2022/08/17 18:29:39;;;;;;;1.50;1.27;;;28.90;76.10;;;;;;10261371;28;20050;-64
2022/08/17 18:34:46;;;;;;;2.28;1.20;;;28.70;76.50;;;;;;10248979;28;20062;-63
2022/08/17 18:39:49;;;;;;;2.53;1.83;;;28.60;77.30;;;;;;10250089;28;20054;-68
2022/08/17 18:44:52;;;;;;;4.07;1.75;;;28.30;77.80;;;;;;10254920;28;20414;-68
2022/08/17 18:50:18;;;;;;;3.22;1.80;;;28.10;78.50;;;;;;10259191;28;20054;-68
2022/08/17 18:55:28;;;;;;;2.13;1.23;;;27.90;79.40;;;;;;10243569;28;20047;-68
2022/08/17 19:00:35;;;;;;;3.92;1.80;;;27.70;79.80;;;;;;10256193;28;20047;-69
2022/08/17 19:05:40;;;;;;;3.15;1.63;;;27.50;80.50;;;;;;10225008;28;20043;-68
2022/08/17 19:10:45;;;;;;;5.85;1.70;;;27.30;81.20;;;;;;10240033;28;20047;-69
2022/08/17 19:15:49;;;;;;;;;;;27.10;82.10;;;;;;10263138;28;20417;-68
2022/08/17 19:21:29;;;;;;;2.67;2.00;;;26.90;83.50;;;;;;10257974;28;20017;-69
2022/08/17 19:26:42;;;;;;;5.05;1.80;;;26.70;82.50;;;;;;10259313;28;20054;-68
2022/08/17 19:31:58;;;;;;;4.97;1.55;;;26.60;84.00;;;;;;10243904;28;20408;-69
2022/08/17 19:37:10;;;;;;;2.25;1.50;;;26.50;84.30;;;;;;10251593;28;20046;-69
2022/08/17 19:42:46;;;;;;;5.75;2.25;;;26.40;84.30;;;;;;10264277;28;20054;-68
2022/08/17 19:47:55;;;;;;;4.97;1.63;;;26.20;88.00;;;;;;10259145;28;20129;-71
2022/08/17 19:53:08;;;;;;;6.20;1.83;;;26.00;87.40;;;;;;10257378;28;20050;-73
2022/08/17 19:58:33;;;;;;;3.42;1.77;;;25.80;87.00;;;;;;10246958;28;20058;-73
2022/08/17 20:04:02;;;;;;;7.40;2.30;;;25.70;88.40;;;;;;10265361;28;20120;-72
2022/08/17 20:09:26;;;;;;;5.88;1.90;;;25.50;90.00;;;;;;10254410;28;20517;-74
2022/08/17 20:14:44;;;;;;;3.72;1.95;;;25.30;90.10;;;;;;10227223;28;20142;-70
2022/08/17 20:20:06;;;;;;;3.33;2.20;;;25.10;90.20;;;;;;10258045;28;20043;-72
2022/08/17 20:25:46;;;;;;;3.90;2.00;;;25.10;90.40;;;;;;10263674;28;20472;-72
2022/08/17 20:30:50;;;;;;;11.68;2.20;;;24.90;90.90;;;;;;10254510;28;20050;-72
2022/08/17 20:36:10;;;;;;;5.32;1.83;;;24.80;91.10;;;;;;10240345;28;20050;-72
2022/08/17 20:41:21;;;;;;;2.30;2.10;;;24.70;91.70;;;;;;10258864;28;20054;-71
2022/08/17 20:46:49;;;;;;;4.35;2.67;;;24.60;92.20;;;;;;10247059;28;20549;-72
2022/08/17 20:52:08;;;;;;;4.97;2.03;;;24.40;93.20;;;;;;10257900;28;20047;-72
2022/08/17 20:57:33;;;;;;;4.75;2.00;;;24.20;93.40;;;;;;10253072;28;20044;-72
2022/08/17 21:02:35;;;;;;;2.63;1.83;;;23.90;93.90;;;;;;10245621;28;20055;-72
2022/08/17 21:07:59;;;;;;;2.78;2.00;;;23.80;94.30;;;;;;10246552;28;20051;-73
2022/08/17 21:13:12;;;;;;;2.28;2.05;;;23.70;94.40;;;;;;10289343;28;20405;-74
2022/08/17 21:18:31;;;;;;;6.50;3.10;;;23.60;95.00;;;;;;10311800;28;20072;-73
2022/08/17 21:23:50;;;;;;;5.07;1.90;;;23.40;95.60;;;;;;10290025;28;20042;-66
2022/08/17 21:29:29;;;;;;;3.20;2.22;;;23.40;95.80;;;;;;10298196;28;20057;-66
2022/08/17 21:34:43;;;;;;;4.30;2.10;;;23.30;96.40;;;;;;10207180;28;20120;-67
2022/08/17 21:39:52;;;;;;;3.83;1.80;;;23.20;96.90;;;;;;10296404;28;20042;-66
2022/08/17 21:45:00;;;;;;;4.13;2.00;;;23.10;97.40;;;;;;10295740;28;20105;-66
2022/08/17 21:50:22;;;;;;;3.28;1.92;;;23.00;97.40;;;;;;10295626;28;20054;-67
2022/08/17 21:55:29;;;;;;;2.47;2.00;;;22.90;98.00;;;;;;10294088;28;20055;-67
2022/08/17 22:00:31;;;;;;;2.92;2.40;;;22.80;98.20;;;;;;10294367;28;20046;-66
2022/08/17 22:05:36;;;;;;;4.55;2.42;;;22.80;98.60;;;;;;10300865;28;20108;-65
2022/08/17 22:10:41;;;;;;;4.00;2.05;;;22.70;99.30;;;;;;10291057;28;20051;-66
2022/08/17 22:15:46;;;;;;;;;;;22.70;99.50;;;;;;10240359;28;20048;-66
2022/08/17 22:20:51;;;;;;;2.47;2.15;;;22.70;99.90;;;;;;10255983;28;19926;-66
2022/08/17 22:26:00;;;;;;;5.38;3.13;;;22.60;99.90;;;;;;10254501;28;20062;-67
2022/08/17 22:31:03;;;;;;;6.80;4.32;;;22.60;99.90;;;;;;10259211;28;20110;-69
2022/08/17 22:36:31;;;;;;;7.75;3.90;;;22.50;99.90;;;;;;10269900;28;20055;-69
2022/08/17 22:41:49;;;;;;;5.63;3.83;;;22.50;99.90;;;;;;10256622;28;20042;-69
2022/08/17 22:46:57;;;;;;;5.70;4.00;;;22.50;99.90;;;;;;10257883;28;20059;-69
2022/08/17 22:59:19;;;;;;;5.57;4.63;;;22.60;99.90;;;;;;10255129;28;20059;-69
2022/08/17 23:04:01;;;;;;;5.65;4.40;;;22.60;99.90;;;;;;10253999;28;20059;-69
2022/08/17 23:09:05;;;;;;;7.80;4.78;;;22.50;99.90;;;;;;10253188;28;20450;-70
2022/08/17 23:14:07;;;;;;;7.10;5.00;;;22.50;99.90;;;;;;10262633;28;20050;-69
2022/08/17 23:19:11;;;;;;;6.55;5.05;;;22.50;99.90;;;;;;10255935;28;20043;-69
2022/08/17 23:24:22;;;;;;;7.88;5.28;;;22.50;99.90;;;;;;10250845;28;20043;-69
2022/08/17 23:29:28;;;;;;;6.78;5.45;;;22.40;99.90;;;;;;10253347;28;20123;-68
2022/08/17 23:34:30;;;;;;;7.10;5.20;;;22.30;99.90;;;;;;10259448;28;20038;-69
2022/08/17 23:39:31;;;;;;;6.07;4.93;;;22.20;99.90;;;;;;10245081;28;20051;-69
2022/08/17 23:44:35;;;;;;;9.98;6.22;;;22.20;99.90;;;;;;10253067;28;20058;-69
2022/08/17 23:49:37;;;;;;;8.07;5.50;;;22.10;99.90;;;;;;10251561;28;20050;-68
2022/08/17 23:54:42;;;;;;;9.35;6.65;;;22.10;99.90;;;;;;10252904;28;20039;-69
2022/08/17 23:59:44;;;;;;;8.23;6.47;;;22.00;99.90;;;;;;10251230;28;20066;-69
